createdAt,value
2018-03-08T00:00:35.729Z,526.60
2018-03-08T00:01:35.690Z,538.40
2018-03-08T00:02:35.655Z,524.40
2018-03-08T00:03:35.632Z,540.60
2018-03-08T00:04:35.593Z,531.50
2018-03-08T00:05:35.561Z,525.30
2018-03-08T00:06:35.533Z,540.60
2018-03-08T00:07:35.505Z,542.60
2018-03-08T00:08:35.474Z,534.80
2018-03-08T00:09:35.434Z,544.00
2018-03-08T00:10:35.400Z,549.80
2018-03-08T00:11:35.371Z,538.20
2018-03-08T00:12:35.342Z,541.20
2018-03-08T00:13:35.308Z,528.80
2018-03-08T00:14:35.275Z,536.70
2018-03-08T00:15:35.241Z,525.40
2018-03-08T00:16:35.204Z,537.00
2018-03-08T00:17:35.172Z,536.70
2018-03-08T00:18:35.149Z,532.00
2018-03-08T00:19:35.120Z,521.40
2018-03-08T00:20:35.080Z,532.20
2018-03-08T00:21:35.058Z,538.00
2018-03-08T00:22:35.012Z,523.60
2018-03-08T00:23:34.981Z,513.00
2018-03-08T00:24:34.959Z,516.00
2018-03-08T00:25:35.129Z,494.40
2018-03-08T00:26:34.890Z,493.90
2018-03-08T00:27:34.869Z,491.30
2018-03-08T00:28:34.828Z,486.80
2018-03-08T00:29:34.799Z,469.90
2018-03-08T00:30:34.766Z,483.50
2018-03-08T00:31:34.733Z,476.40
2018-03-08T00:32:34.701Z,468.10
2018-03-08T00:33:34.672Z,441.90
2018-03-08T00:34:34.640Z,463.80
2018-03-08T00:35:34.666Z,457.20
2018-03-08T00:36:34.570Z,436.30
2018-03-08T00:37:34.534Z,455.00
2018-03-08T00:38:34.509Z,464.80
2018-03-08T00:39:34.486Z,470.80
2018-03-08T00:40:34.451Z,484.40
2018-03-08T00:41:34.418Z,509.90
2018-03-08T00:42:34.391Z,494.50
2018-03-08T00:43:34.350Z,496.20
2018-03-08T00:44:34.314Z,497.00
2018-03-08T00:45:34.289Z,487.40
2018-03-08T00:46:34.252Z,499.40
2018-03-08T00:47:34.219Z,500.50
2018-03-08T00:48:34.188Z,493.60
2018-03-08T00:49:34.157Z,511.60
2018-03-08T00:50:34.120Z,527.70
2018-03-08T00:51:34.096Z,482.10
2018-03-08T00:52:34.059Z,495.20
2018-03-08T00:53:34.032Z,474.40
2018-03-08T00:54:34.003Z,477.10
2018-03-08T00:55:33.974Z,478.70
2018-03-08T00:56:33.932Z,475.30
2018-03-08T00:57:33.904Z,471.60
2018-03-08T00:58:33.871Z,472.70
2018-03-08T00:59:33.845Z,478.80
2018-03-08T01:00:33.810Z,482.10
2018-03-08T01:01:33.778Z,476.70
2018-03-08T01:02:33.742Z,472.00
2018-03-08T01:03:33.710Z,468.10
2018-03-08T01:04:33.676Z,464.80
2018-03-08T01:05:33.646Z,462.90
2018-03-08T01:06:33.621Z,472.70
2018-03-08T01:07:33.588Z,469.20
2018-03-08T01:08:33.553Z,487.80
2018-03-08T01:09:33.520Z,495.30
2018-03-08T01:10:33.486Z,489.80
2018-03-08T01:11:33.458Z,494.10
2018-03-08T01:12:33.418Z,500.60
2018-03-08T01:13:33.386Z,485.50
2018-03-08T01:14:33.372Z,498.00
2018-03-08T01:15:33.337Z,500.80
2018-03-08T01:16:33.291Z,502.50
2018-03-08T01:17:33.263Z,463.70
2018-03-08T01:18:33.233Z,484.50
2018-03-08T01:19:33.199Z,464.90
2018-03-08T01:20:33.172Z,462.20
2018-03-08T01:21:33.140Z,482.60
2018-03-08T01:22:33.099Z,467.00
2018-03-08T01:23:33.070Z,475.90
2018-03-08T01:24:33.039Z,457.10
2018-03-08T01:25:33.010Z,450.00
2018-03-08T01:26:32.982Z,467.30
2018-03-08T01:27:32.953Z,457.30
2018-03-08T01:28:32.911Z,456.60
2018-03-08T01:29:32.882Z,461.60
2018-03-08T01:30:32.854Z,470.60
2018-03-08T01:31:32.822Z,471.10
2018-03-08T01:32:32.784Z,474.60
2018-03-08T01:33:32.755Z,480.90
2018-03-08T01:34:32.721Z,478.50
2018-03-08T01:35:32.693Z,485.90
2018-03-08T01:36:32.667Z,467.80
2018-03-08T01:37:32.628Z,471.40
2018-03-08T01:38:32.594Z,496.60
2018-03-08T01:39:32.571Z,516.10
2018-03-08T01:40:32.533Z,526.70
2018-03-08T01:41:32.506Z,507.40
2018-03-08T01:42:32.469Z,503.30
2018-03-08T01:43:32.439Z,504.90
2018-03-08T01:44:32.403Z,503.50
2018-03-08T01:45:32.375Z,503.50
2018-03-08T01:46:32.397Z,526.50
2018-03-08T01:47:32.315Z,519.40
2018-03-08T01:48:32.273Z,532.10
2018-03-08T01:49:32.245Z,523.30
2018-03-08T01:50:32.214Z,522.10
2018-03-08T01:51:32.177Z,496.70
2018-03-08T01:52:32.152Z,521.70
2018-03-08T01:53:32.117Z,504.80
2018-03-08T01:54:32.083Z,512.90
2018-03-08T01:55:32.053Z,500.20
2018-03-08T01:56:32.024Z,495.00
2018-03-08T01:57:31.998Z,505.80
2018-03-08T01:58:31.965Z,508.70
2018-03-08T01:59:31.929Z,497.30
2018-03-08T02:00:31.893Z,479.90
2018-03-08T02:01:31.859Z,463.10
2018-03-08T02:02:31.834Z,466.60
2018-03-08T02:03:31.800Z,474.90
2018-03-08T02:04:31.767Z,476.20
2018-03-08T02:05:31.736Z,471.10
2018-03-08T02:06:31.718Z,461.60
2018-03-08T02:07:31.675Z,455.30
2018-03-08T02:08:31.645Z,447.40
2018-03-08T02:09:31.615Z,485.00
2018-03-08T02:10:31.574Z,466.80
2018-03-08T02:11:31.541Z,478.60
2018-03-08T02:12:31.523Z,457.10
2018-03-08T02:13:31.482Z,424.70
2018-03-08T02:14:31.451Z,425.80
2018-03-08T02:15:31.423Z,406.80
2018-03-08T02:16:31.390Z,427.50
2018-03-08T02:17:31.357Z,427.60
2018-03-08T02:18:31.326Z,436.00
2018-03-08T02:19:31.298Z,431.70
2018-03-08T02:20:31.259Z,431.40
2018-03-08T02:21:31.228Z,451.90
2018-03-08T02:22:31.193Z,463.40
2018-03-08T02:23:31.167Z,448.60
2018-03-08T02:24:31.134Z,462.20
2018-03-08T02:25:31.104Z,452.30
2018-03-08T02:26:31.068Z,482.90
2018-03-08T02:27:31.043Z,499.70
2018-03-08T02:28:31.009Z,498.80
2018-03-08T02:29:30.978Z,489.70
2018-03-08T02:30:30.956Z,520.70
2018-03-08T02:31:30.918Z,519.60
2018-03-08T02:32:30.879Z,502.60
2018-03-08T02:33:30.848Z,512.00
2018-03-08T02:34:30.823Z,515.90
2018-03-08T02:35:30.788Z,494.90
2018-03-08T02:36:30.748Z,492.20
2018-03-08T02:37:30.724Z,525.80
2018-03-08T02:38:30.691Z,504.50
2018-03-08T02:39:30.667Z,492.90
2018-03-08T02:40:30.635Z,502.80
2018-03-08T02:41:30.596Z,504.80
2018-03-08T02:42:30.571Z,507.40
2018-03-08T02:43:30.533Z,505.10
2018-03-08T02:44:30.504Z,534.80
2018-03-08T02:45:30.471Z,537.50
2018-03-08T02:46:30.442Z,529.90
2018-03-08T02:47:30.411Z,542.60
2018-03-08T02:48:30.395Z,551.50
2018-03-08T02:49:30.349Z,551.20
2018-03-08T02:50:30.312Z,541.00
2018-03-08T02:51:30.281Z,559.90
2018-03-08T02:52:30.248Z,542.20
2018-03-08T02:53:30.221Z,554.80
2018-03-08T02:54:30.189Z,570.60
2018-03-08T02:55:30.163Z,572.90
2018-03-08T02:56:30.118Z,585.80
2018-03-08T02:57:30.092Z,586.10
2018-03-08T02:58:30.068Z,583.50
2018-03-08T02:59:30.026Z,583.20
2018-03-08T03:00:29.989Z,561.90
2018-03-08T03:01:29.966Z,590.60
2018-03-08T03:02:29.942Z,594.30
2018-03-08T03:03:30.055Z,606.60
2018-03-08T03:04:29.871Z,614.40
2018-03-08T03:05:29.836Z,616.40
2018-03-08T03:06:29.797Z,595.80
2018-03-08T03:07:29.771Z,639.30
2018-03-08T03:08:29.736Z,620.50
2018-03-08T03:09:29.711Z,647.70
2018-03-08T03:10:29.676Z,602.90
2018-03-08T03:11:29.643Z,611.20
2018-03-08T03:12:29.606Z,612.60
2018-03-08T03:13:29.577Z,641.40
2018-03-08T03:14:29.544Z,619.80
2018-03-08T03:15:29.512Z,641.90
2018-03-08T03:16:29.481Z,658.60
2018-03-08T03:17:29.454Z,634.70
2018-03-08T03:18:29.416Z,650.40
2018-03-08T03:19:29.384Z,675.20
2018-03-08T03:20:29.354Z,646.00
2018-03-08T03:21:29.322Z,641.20
2018-03-08T03:22:29.288Z,645.50
2018-03-08T03:23:29.255Z,638.80
2018-03-08T03:24:29.228Z,634.40
2018-03-08T03:25:29.195Z,670.80
2018-03-08T03:26:29.164Z,665.90
2018-03-08T03:27:29.128Z,694.30
2018-03-08T03:28:29.097Z,692.20
2018-03-08T03:29:29.065Z,676.70
2018-03-08T03:30:29.037Z,636.60
2018-03-08T03:31:29.014Z,658.90
2018-03-08T03:32:28.968Z,672.60
2018-03-08T03:33:28.933Z,618.30
2018-03-08T03:34:28.910Z,645.80
2018-03-08T03:35:28.876Z,696.80
2018-03-08T03:36:28.846Z,745.30
2018-03-08T03:37:28.815Z,783.70
2018-03-08T03:38:28.789Z,773.30
2018-03-08T03:39:28.747Z,793.50
2018-03-08T03:40:28.721Z,809.70
2018-03-08T03:41:28.691Z,743.60
2018-03-08T03:42:28.657Z,741.40
2018-03-08T03:43:28.623Z,795.70
2018-03-08T03:44:28.592Z,814.50
2018-03-08T03:45:28.558Z,750.90
2018-03-08T03:46:28.540Z,911.30
2018-03-08T03:47:28.489Z,798.90
2018-03-08T03:48:28.461Z,756.90
2018-03-08T03:49:28.429Z,787.00
2018-03-08T03:50:28.401Z,711.20
2018-03-08T03:51:28.362Z,686.50
2018-03-08T03:52:28.333Z,738.50
2018-03-08T03:53:28.304Z,801.40
2018-03-08T03:54:28.261Z,835.20
2018-03-08T03:55:28.229Z,770.90
2018-03-08T03:56:28.203Z,835.10
2018-03-08T03:57:28.175Z,919.70
2018-03-08T03:58:28.138Z,766.90
2018-03-08T03:59:28.107Z,922.50
2018-03-08T04:00:28.076Z,1125.20
2018-03-08T04:01:28.038Z,1254.40
2018-03-08T04:02:28.012Z,1060.60
2018-03-08T04:03:27.979Z,1068.60
2018-03-08T04:04:27.943Z,1090.10
2018-03-08T04:05:27.907Z,1061.00
2018-03-08T04:06:27.880Z,1023.90
2018-03-08T04:07:27.857Z,1240.30
2018-03-08T04:08:27.824Z,1234.90
2018-03-08T04:09:27.790Z,1304.50
2018-03-08T04:10:27.751Z,1043.90
2018-03-08T04:11:27.722Z,1274.70
2018-03-08T04:12:27.691Z,1253.20
2018-03-08T04:13:27.658Z,1254.10
2018-03-08T04:14:27.624Z,1214.30
2018-03-08T04:15:27.602Z,891.80
2018-03-08T04:16:27.566Z,1867.90
2018-03-08T04:17:27.530Z,1406.80
2018-03-08T04:18:27.497Z,1569.10
2018-03-08T04:19:27.471Z,1598.40
2018-03-08T04:20:27.433Z,1309.30
2018-03-08T04:21:27.408Z,1510.10
2018-03-08T04:22:27.364Z,1350.70
2018-03-08T04:23:27.340Z,1976.20
2018-03-08T04:24:27.306Z,1884.50
2018-03-08T04:25:27.286Z,1389.40
2018-03-08T04:26:27.236Z,1341.10
2018-03-08T04:27:27.205Z,850.60
2018-03-08T04:28:27.174Z,1377.10
2018-03-08T04:29:27.146Z,1071.90
2018-03-08T04:30:27.115Z,985.90
2018-03-08T04:31:27.084Z,1191.40
2018-03-08T04:32:27.048Z,1408.70
2018-03-08T04:33:27.016Z,1137.10
2018-03-08T04:34:26.992Z,975.80
2018-03-08T04:35:26.955Z,1252.10
2018-03-08T04:36:26.918Z,1159.60
2018-03-08T04:37:27.114Z,1241.30
2018-03-08T04:38:26.857Z,1062.70
2018-03-08T04:39:26.824Z,1445.30
2018-03-08T04:40:26.800Z,1205.70
2018-03-08T04:41:26.767Z,1234.20
2018-03-08T04:42:26.733Z,1343.90
2018-03-08T04:43:26.692Z,1623.00
2018-03-08T04:44:26.670Z,1698.20
2018-03-08T04:45:26.639Z,1552.00
2018-03-08T04:46:26.603Z,1273.20
2018-03-08T04:47:26.575Z,1486.90
2018-03-08T04:48:26.536Z,1069.70
2018-03-08T04:49:26.507Z,1667.80
2018-03-08T04:50:26.480Z,1739.30
2018-03-08T04:51:26.441Z,1594.60
2018-03-08T04:52:26.411Z,1251.40
2018-03-08T04:53:26.375Z,1690.60
2018-03-08T04:54:26.351Z,1999.90
2018-03-08T04:55:26.313Z,1999.90
2018-03-08T04:56:26.282Z,1459.20
2018-03-08T04:57:26.255Z,1667.80
2018-03-08T04:58:26.221Z,1999.90
2018-03-08T04:59:26.194Z,1999.90
2018-03-08T05:00:26.151Z,1999.90
2018-03-08T05:01:26.123Z,1999.90
2018-03-08T05:02:26.084Z,1873.30
2018-03-08T05:03:26.053Z,1080.20
2018-03-08T05:04:26.026Z,877.60
2018-03-08T05:05:25.994Z,1245.20
2018-03-08T05:06:25.959Z,1799.80
2018-03-08T05:07:25.928Z,1881.10
2018-03-08T05:08:25.901Z,1999.90
2018-03-08T05:09:25.867Z,1999.90
2018-03-08T05:10:25.835Z,1999.90
2018-03-08T05:11:25.804Z,1999.90
2018-03-08T05:12:25.766Z,1549.50
2018-03-08T05:13:25.738Z,1506.20
2018-03-08T05:14:25.708Z,1741.20
2018-03-08T05:15:25.675Z,1884.40
2018-03-08T05:16:25.638Z,1999.90
2018-03-08T05:17:25.606Z,1612.10
2018-03-08T05:18:25.570Z,1610.90
2018-03-08T05:19:25.545Z,1552.30
2018-03-08T05:20:25.520Z,1968.50
2018-03-08T05:21:25.487Z,1846.60
2018-03-08T05:22:25.447Z,1999.90
2018-03-08T05:23:25.422Z,1948.60
2018-03-08T05:24:25.388Z,1818.60
2018-03-08T05:25:25.357Z,1999.90
2018-03-08T05:26:25.325Z,1479.20
2018-03-08T05:27:25.293Z,1878.20
2018-03-08T05:28:25.261Z,1767.20
2018-03-08T05:29:25.225Z,1301.40
2018-03-08T05:30:25.202Z,1418.10
2018-03-08T05:31:25.160Z,1872.80
2018-03-08T05:32:25.126Z,1691.30
2018-03-08T05:33:25.094Z,1999.90
2018-03-08T05:34:25.069Z,1532.30
2018-03-08T05:35:25.035Z,1999.90
2018-03-08T05:36:25.001Z,1999.90
2018-03-08T05:37:24.971Z,1999.90
2018-03-08T05:38:24.934Z,1767.20
2018-03-08T05:39:24.908Z,1999.90
2018-03-08T05:40:25.070Z,1665.30
2018-03-08T05:41:24.842Z,1694.70
2018-03-08T05:42:24.810Z,1512.40
2018-03-08T05:43:24.782Z,1328.30
2018-03-08T05:44:24.745Z,1641.00
2018-03-08T05:45:24.715Z,1332.50
2018-03-08T05:46:24.681Z,1597.50
2018-03-08T05:47:24.652Z,1469.60
2018-03-08T05:48:24.638Z,1128.00
2018-03-08T05:49:24.586Z,1378.90
2018-03-08T05:50:24.569Z,1606.70
2018-03-08T05:51:24.519Z,1537.10
2018-03-08T05:52:24.496Z,1479.90
2018-03-08T05:53:24.464Z,1472.90
2018-03-08T05:54:24.461Z,1442.10
2018-03-08T05:55:24.393Z,1199.10
2018-03-08T05:56:24.379Z,1390.70
2018-03-08T05:57:24.330Z,1255.40
2018-03-08T05:58:24.296Z,1122.20
2018-03-08T05:59:24.270Z,1227.00
2018-03-08T06:00:24.229Z,1330.60
2018-03-08T06:01:24.197Z,1340.50
2018-03-08T06:02:24.176Z,1480.10
2018-03-08T06:03:24.141Z,1153.00
2018-03-08T06:04:24.102Z,1306.30
2018-03-08T06:05:24.071Z,1878.10
2018-03-08T06:06:24.040Z,1688.00
2018-03-08T06:07:24.007Z,1816.90
2018-03-08T06:08:23.990Z,1999.90
2018-03-08T06:09:23.956Z,1999.90
2018-03-08T06:10:23.910Z,1949.50
2018-03-08T06:11:23.879Z,1660.60
2018-03-08T06:12:23.850Z,1583.80
2018-03-08T06:13:23.819Z,1999.90
2018-03-08T06:14:23.785Z,1858.40
2018-03-08T06:15:23.752Z,1843.80
2018-03-08T06:16:23.718Z,1132.00
2018-03-08T06:17:23.685Z,1178.30
2018-03-08T06:18:23.663Z,944.30
2018-03-08T06:19:23.676Z,1067.20
2018-03-08T06:20:23.587Z,967.70
2018-03-08T06:21:23.559Z,1157.10
2018-03-08T06:22:23.526Z,1698.80
2018-03-08T06:23:23.499Z,1351.40
2018-03-08T06:24:23.470Z,1282.80
2018-03-08T06:25:23.435Z,1396.70
2018-03-08T06:26:23.396Z,1161.20
2018-03-08T06:27:23.572Z,1110.50
2018-03-08T06:28:23.340Z,915.90
2018-03-08T06:29:23.304Z,1056.50
2018-03-08T06:30:23.291Z,1244.10
2018-03-08T06:31:23.250Z,1571.30
2018-03-08T06:32:23.214Z,1110.00
2018-03-08T06:33:23.185Z,935.80
2018-03-08T06:34:23.162Z,1009.50
2018-03-08T06:35:23.117Z,1055.60
2018-03-08T06:36:23.080Z,969.00
2018-03-08T06:37:23.068Z,966.00
2018-03-08T06:38:23.014Z,819.40
2018-03-08T06:39:22.985Z,940.70
2018-03-08T06:40:22.958Z,913.40
2018-03-08T06:41:22.922Z,919.20
2018-03-08T06:42:22.889Z,893.90
2018-03-08T06:43:22.858Z,933.10
2018-03-08T06:44:22.829Z,914.80
2018-03-08T06:45:22.806Z,851.80
2018-03-08T06:46:22.774Z,846.30
2018-03-08T06:47:22.734Z,814.00
2018-03-08T06:48:22.695Z,830.40
2018-03-08T06:49:22.672Z,809.30
2018-03-08T06:50:22.643Z,821.50
2018-03-08T06:51:22.605Z,791.90
2018-03-08T06:52:22.577Z,804.20
2018-03-08T06:53:22.536Z,800.10
2018-03-08T06:54:22.509Z,767.50
2018-03-08T06:55:22.476Z,764.30
2018-03-08T06:56:22.453Z,769.20
2018-03-08T06:57:22.425Z,818.00
2018-03-08T06:58:22.381Z,722.30
2018-03-08T06:59:22.349Z,654.80
2018-03-08T07:00:22.332Z,683.70
2018-03-08T07:01:22.293Z,623.90
2018-03-08T07:02:22.262Z,645.50
2018-03-08T07:03:22.230Z,595.90
2018-03-08T07:04:22.192Z,664.80
2018-03-08T07:05:22.165Z,639.20
2018-03-08T07:06:22.134Z,636.60
2018-03-08T07:07:22.100Z,663.10
2018-03-08T07:08:22.071Z,669.60
2018-03-08T07:09:22.042Z,643.10
2018-03-08T07:10:22.012Z,611.70
2018-03-08T07:11:21.979Z,585.40
2018-03-08T07:12:21.944Z,663.60
2018-03-08T07:13:21.909Z,700.60
2018-03-08T07:14:21.885Z,652.60
2018-03-08T07:15:21.863Z,407.10
2018-03-08T07:16:21.818Z,576.50
2018-03-08T07:17:21.785Z,412.40
2018-03-08T07:18:21.757Z,439.40
2018-03-08T07:19:21.740Z,450.80
2018-03-08T07:20:21.692Z,242.10
2018-03-08T07:21:21.664Z,441.10
2018-03-08T07:22:21.623Z,424.90
2018-03-08T07:23:21.596Z,369.60
2018-03-08T07:24:21.563Z,333.10
2018-03-08T07:25:21.533Z,257.60
2018-03-08T07:26:21.503Z,253.80
2018-03-08T07:27:21.474Z,225.60
2018-03-08T07:28:21.439Z,258.40
2018-03-08T07:29:21.410Z,242.10
2018-03-08T07:30:21.384Z,256.90
2018-03-08T07:31:21.356Z,224.30
2018-03-08T07:32:21.312Z,135.40
2018-03-08T07:33:21.279Z,181.10
2018-03-08T07:34:21.253Z,112.60
2018-03-08T07:35:21.223Z,116.60
2018-03-08T07:36:21.198Z,154.80
2018-03-08T07:37:21.158Z,147.20
2018-03-08T07:38:21.131Z,162.70
2018-03-08T07:39:21.097Z,167.30
2018-03-08T07:40:21.061Z,160.70
2018-03-08T07:41:21.031Z,146.40
2018-03-08T07:42:21.004Z,163.10
2018-03-08T07:43:20.971Z,146.70
2018-03-08T07:44:20.937Z,136.00
2018-03-08T07:45:20.906Z,168.20
2018-03-08T07:46:20.893Z,163.10
2018-03-08T07:47:20.851Z,209.50
2018-03-08T07:48:20.813Z,157.10
2018-03-08T07:49:20.787Z,174.20
2018-03-08T07:50:20.755Z,134.10
2018-03-08T07:51:20.721Z,138.50
2018-03-08T07:52:20.695Z,156.40
2018-03-08T07:53:20.662Z,149.40
2018-03-08T07:54:20.626Z,134.60
2018-03-08T07:55:20.602Z,148.20
2018-03-08T07:56:20.571Z,120.80
2018-03-08T07:57:20.536Z,144.00
2018-03-08T07:58:20.507Z,143.10
2018-03-08T07:59:20.473Z,119.20
2018-03-08T08:00:20.471Z,107.40
2018-03-08T08:01:20.408Z,118.70
2018-03-08T08:02:20.377Z,113.50
2018-03-08T08:03:20.347Z,110.30
2018-03-08T08:04:20.319Z,114.00
2018-03-08T08:05:20.289Z,133.40
2018-03-08T08:06:20.251Z,132.90
2018-03-08T08:07:20.220Z,137.40
2018-03-08T08:08:20.192Z,107.20
2018-03-08T08:09:20.165Z,117.40
2018-03-08T08:10:20.129Z,120.20
2018-03-08T08:11:20.096Z,105.80
2018-03-08T08:12:20.066Z,108.60
2018-03-08T08:13:20.040Z,124.40
2018-03-08T08:14:20.012Z,117.50
2018-03-08T08:15:19.978Z,107.20
2018-03-08T08:16:19.948Z,118.70
2018-03-08T08:17:19.916Z,128.30
2018-03-08T08:18:19.883Z,110.70
2018-03-08T08:19:19.853Z,128.60
2018-03-08T08:20:19.875Z,125.90
2018-03-08T08:21:19.791Z,125.30
2018-03-08T08:22:19.756Z,106.70
2018-03-08T08:23:19.724Z,95.80
2018-03-08T08:24:19.697Z,120.90
2018-03-08T08:25:19.668Z,111.50
2018-03-08T08:26:19.636Z,108.60
2018-03-08T08:27:19.605Z,117.50
2018-03-08T08:28:19.567Z,106.90
2018-03-08T08:29:19.542Z,120.10
2018-03-08T08:30:19.511Z,114.10
2018-03-08T08:31:19.474Z,105.90
2018-03-08T08:32:19.443Z,101.30
2018-03-08T08:33:19.419Z,90.50
2018-03-08T08:34:19.383Z,103.00
2018-03-08T08:35:19.352Z,82.20
2018-03-08T08:36:19.327Z,89.80
2018-03-08T08:37:19.292Z,106.40
2018-03-08T08:38:19.261Z,96.80
2018-03-08T08:39:19.233Z,102.50
2018-03-08T08:40:19.207Z,97.50
2018-03-08T08:41:19.169Z,102.00
2018-03-08T08:42:19.136Z,97.90
2018-03-08T08:43:19.108Z,100.70
2018-03-08T08:44:19.077Z,100.20
2018-03-08T08:45:19.053Z,101.50
2018-03-08T08:46:19.015Z,90.20
2018-03-08T08:47:18.991Z,93.50
2018-03-08T08:48:18.954Z,101.00
2018-03-08T08:49:18.943Z,98.40
2018-03-08T08:50:18.896Z,91.40
2018-03-08T08:51:18.868Z,81.20
2018-03-08T08:52:18.829Z,100.70
2018-03-08T08:53:18.799Z,86.90
2018-03-08T08:54:18.770Z,90.80
2018-03-08T08:55:18.737Z,82.60
2018-03-08T08:56:18.714Z,97.50
2018-03-08T08:57:18.675Z,105.10
2018-03-08T08:58:18.644Z,91.60
2018-03-08T08:59:18.626Z,67.60
2018-03-08T09:00:18.594Z,79.00
2018-03-08T09:01:18.562Z,81.20
2018-03-08T09:02:18.530Z,48.60
2018-03-08T09:03:18.492Z,60.80
2018-03-08T09:04:18.476Z,85.10
2018-03-08T09:05:18.440Z,77.60
2018-03-08T09:06:18.415Z,70.30
2018-03-08T09:07:18.375Z,46.40
2018-03-08T09:08:18.357Z,69.80
2018-03-08T09:09:18.312Z,68.50
2018-03-08T09:10:18.292Z,30.70
2018-03-08T09:11:18.276Z,43.50
2018-03-08T09:12:18.222Z,38.60
2018-03-08T09:13:18.192Z,30.20
2018-03-08T09:14:18.162Z,37.20
2018-03-08T09:15:18.130Z,45.00
2018-03-08T09:16:18.098Z,52.80
2018-03-08T09:17:18.077Z,76.30
2018-03-08T09:18:18.042Z,69.90
2018-03-08T09:19:18.009Z,37.80
2018-03-08T09:20:17.988Z,59.80
2018-03-08T09:21:17.951Z,33.70
2018-03-08T09:22:18.019Z,42.00
2018-03-08T09:23:17.893Z,40.90
2018-03-08T09:24:17.863Z,61.10
2018-03-08T09:25:17.837Z,46.60
2018-03-08T09:26:17.805Z,55.30
2018-03-08T09:27:17.825Z,68.50
2018-03-08T09:28:17.746Z,53.90
2018-03-08T09:29:17.714Z,68.20
2018-03-08T09:30:17.686Z,71.70
2018-03-08T09:31:17.652Z,76.80
2018-03-08T09:32:17.626Z,51.80
2018-03-08T09:33:17.592Z,48.90
2018-03-08T09:34:17.566Z,50.30
2018-03-08T09:35:17.535Z,31.70
2018-03-08T09:36:17.502Z,58.20
2018-03-08T09:37:17.490Z,71.70
2018-03-08T09:38:17.453Z,95.80
2018-03-08T09:39:17.419Z,75.30
2018-03-08T09:40:17.385Z,60.10
2018-03-08T09:41:17.365Z,50.60
2018-03-08T09:42:17.330Z,48.30
2018-03-08T09:43:17.300Z,51.30
2018-03-08T09:44:17.269Z,63.40
2018-03-08T09:45:17.236Z,41.00
2018-03-08T09:46:17.223Z,38.60
2018-03-08T09:48:17.154Z,42.10
2018-03-08T09:49:17.120Z,47.80
2018-03-08T09:50:17.092Z,49.90
2018-03-08T09:51:17.064Z,46.60
2018-03-08T09:52:17.030Z,64.40
2018-03-08T09:53:17.011Z,50.20
2018-03-08T09:54:16.971Z,49.10
2018-03-08T09:55:16.954Z,55.70
2018-03-08T09:56:16.918Z,49.70
2018-03-08T09:57:16.894Z,65.30
2018-03-08T09:58:16.862Z,77.80
2018-03-08T09:59:16.825Z,62.80
2018-03-08T10:00:16.792Z,54.50
2018-03-08T10:01:16.764Z,47.70
2018-03-08T10:02:16.743Z,45.20
2018-03-08T10:03:16.715Z,58.30
2018-03-08T10:04:16.688Z,54.70
2018-03-08T10:05:16.647Z,58.10
2018-03-08T10:06:16.616Z,53.60
2018-03-08T10:07:16.593Z,55.40
2018-03-08T10:08:16.565Z,46.40
2018-03-08T10:09:16.529Z,47.90
2018-03-08T10:10:16.503Z,61.80
2018-03-08T10:11:16.471Z,82.10
2018-03-08T10:12:16.462Z,68.30
2018-03-08T10:13:16.413Z,81.00
2018-03-08T10:14:16.388Z,51.60
2018-03-08T10:15:16.364Z,45.00
2018-03-08T10:16:16.337Z,46.70
2018-03-08T10:17:16.296Z,67.90
2018-03-08T10:18:16.267Z,57.00
2018-03-08T10:19:16.242Z,73.40
2018-03-08T10:20:16.211Z,59.70
2018-03-08T10:21:16.184Z,46.90
2018-03-08T10:22:16.153Z,54.90
2018-03-08T10:23:16.122Z,58.60
2018-03-08T10:24:16.120Z,67.70
2018-03-08T10:25:16.066Z,61.30
2018-03-08T10:26:16.039Z,45.70
2018-03-08T10:27:16.012Z,67.20
2018-03-08T10:28:15.983Z,56.40
2018-03-08T10:29:15.962Z,48.50
2018-03-08T10:30:15.926Z,46.50
2018-03-08T10:31:15.901Z,41.30
2018-03-08T10:32:15.871Z,44.00
2018-03-08T10:33:15.853Z,44.60
2018-03-08T10:34:15.815Z,35.20
2018-03-08T10:35:15.803Z,48.80
2018-03-08T10:36:15.752Z,45.30
2018-03-08T10:37:15.729Z,49.90
2018-03-08T10:38:15.709Z,49.30
2018-03-08T10:40:15.641Z,37.00
2018-03-08T10:41:15.659Z,51.60
2018-03-08T10:42:15.600Z,50.00
2018-03-08T10:43:15.565Z,49.50
2018-03-08T10:44:15.537Z,50.50
2018-03-08T10:45:15.510Z,32.50
2018-03-08T10:46:15.478Z,51.00
2018-03-08T10:47:15.451Z,36.20
2018-03-08T10:48:15.430Z,38.40
2018-03-08T10:49:15.397Z,40.20
2018-03-08T10:50:15.369Z,38.70
2018-03-08T10:51:15.343Z,38.30
2018-03-08T10:52:15.317Z,41.00
2018-03-08T10:53:15.302Z,39.40
2018-03-08T10:54:15.283Z,33.80
2018-03-08T10:55:15.237Z,33.10
2018-03-08T10:56:15.268Z,39.40
2018-03-08T10:57:15.190Z,38.50
2018-03-08T10:58:15.157Z,41.80
2018-03-08T10:59:15.123Z,40.50
2018-03-08T11:00:15.102Z,40.80
2018-03-08T11:01:15.073Z,40.60
2018-03-08T11:02:15.045Z,34.90
2018-03-08T11:03:15.026Z,33.30
2018-03-08T11:04:14.995Z,37.60
2018-03-08T11:05:14.963Z,33.80
2018-03-08T11:06:14.941Z,32.90
2018-03-08T11:07:14.917Z,35.10
2018-03-08T11:08:14.884Z,29.00
2018-03-08T11:09:14.867Z,31.80
2018-03-08T11:10:14.834Z,43.00
2018-03-08T11:11:14.817Z,37.60
2018-03-08T11:12:14.787Z,36.80
2018-03-08T11:13:14.752Z,38.80
2018-03-08T11:14:14.751Z,36.40
2018-03-08T11:15:14.701Z,29.80
2018-03-08T11:16:14.678Z,46.30
2018-03-08T11:17:14.650Z,36.60
2018-03-08T11:18:14.670Z,35.40
2018-03-08T11:19:14.591Z,28.60
2018-03-08T11:20:14.610Z,30.70
2018-03-08T11:21:14.548Z,33.30
2018-03-08T11:22:14.515Z,27.80
2018-03-08T11:23:14.495Z,31.10
2018-03-08T11:24:14.460Z,31.20
2018-03-08T11:25:14.434Z,39.80
2018-03-08T11:26:14.410Z,36.40
2018-03-08T11:27:14.385Z,34.30
2018-03-08T11:28:14.360Z,42.90
2018-03-08T11:29:14.333Z,30.50
2018-03-08T11:30:14.307Z,29.10
2018-03-08T11:31:14.331Z,27.90
2018-03-08T11:32:14.254Z,30.20
2018-03-08T11:33:14.243Z,32.50
2018-03-08T11:34:14.201Z,31.60
2018-03-08T11:35:14.186Z,34.70
2018-03-08T11:36:14.150Z,31.40
2018-03-08T11:37:14.141Z,30.20
2018-03-08T11:38:14.104Z,31.50
2018-03-08T11:39:14.091Z,32.20
2018-03-08T11:40:14.056Z,28.40
2018-03-08T11:41:14.032Z,36.70
2018-03-08T11:42:14.011Z,34.10
2018-03-08T11:43:13.981Z,29.30
2018-03-08T11:44:13.957Z,26.30
2018-03-08T11:45:13.935Z,32.00
2018-03-08T11:46:13.923Z,27.80
2018-03-08T11:47:13.906Z,40.00
2018-03-08T11:48:13.870Z,32.90
2018-03-08T11:49:13.835Z,30.90
2018-03-08T11:50:13.826Z,32.40
2018-03-08T11:51:13.787Z,31.40
2018-03-08T11:52:14.383Z,28.90
2018-03-08T11:53:13.743Z,35.30
2018-03-08T11:54:13.719Z,28.30
2018-03-08T11:55:13.693Z,26.00
2018-03-08T11:56:13.668Z,31.00
2018-03-08T11:57:13.644Z,33.50
2018-03-08T11:58:13.620Z,33.70
2018-03-08T11:59:13.601Z,31.60
2018-03-08T12:00:13.628Z,28.70
2018-03-08T12:01:13.549Z,34.50
2018-03-08T12:02:13.529Z,31.60
2018-03-08T12:03:13.512Z,30.20
2018-03-08T12:04:13.510Z,24.50
2018-03-08T12:05:13.462Z,24.40
2018-03-08T12:06:13.441Z,26.90
2018-03-08T12:07:13.410Z,23.00
2018-03-08T12:08:13.391Z,26.90
2018-03-08T12:09:13.362Z,29.00
2018-03-08T12:10:13.344Z,27.30
2018-03-08T12:11:13.332Z,32.10
2018-03-08T12:12:13.296Z,23.80
2018-03-08T12:13:13.277Z,22.90
2018-03-08T12:14:13.254Z,26.00
2018-03-08T12:15:13.247Z,29.90
2018-03-08T12:16:13.207Z,25.30
2018-03-08T12:17:13.179Z,26.50
2018-03-08T12:18:13.162Z,26.10
2018-03-08T12:19:13.129Z,26.90
2018-03-08T12:20:13.109Z,27.00
2018-03-08T12:21:13.087Z,26.40
2018-03-08T12:22:13.059Z,23.40
2018-03-08T12:23:13.037Z,21.50
2018-03-08T12:24:13.016Z,23.50
2018-03-08T12:25:12.993Z,27.80
2018-03-08T12:26:12.964Z,23.70
2018-03-08T12:27:12.939Z,31.70
2018-03-08T12:28:12.920Z,21.20
2018-03-08T12:29:12.891Z,24.50
2018-03-08T12:30:12.862Z,24.80
2018-03-08T12:31:12.844Z,27.50
2018-03-08T12:32:12.814Z,25.50
2018-03-08T12:33:12.787Z,25.70